Time;durP1;ratioP1;P1;durP2;ratioP2;P2;SDS_P1;SDS_P2;PMS_P1;PMS_P2;Temp;Humidity;BMP_temperature;BMP_pressure;BME280_temperature;BME280_humidity;BME280_pressure;Samples;Min_cycle;Max_cycle;Signal;HPM_P1;HPM_P2
2023/05/01 00:00:56;;;;;;;6.43;4.25;;;9.60;99.90;;;;;;7366588;19;21193;-62
2023/05/01 00:03:22;;;;;;;6.65;4.15;;;9.60;99.90;;;;;;7371984;19;20025;-62
2023/05/01 00:05:48;;;;;;;11.07;4.03;;;9.60;99.90;;;;;;7366777;19;20022;-62
2023/05/01 00:08:15;;;;;;;6.03;4.15;;;9.50;99.90;;;;;;7367341;19;20029;-62
2023/05/01 00:10:41;;;;;;;7.60;4.15;;;9.50;99.90;;;;;;7367269;19;20022;-62
2023/05/01 00:13:08;;;;;;;5.70;3.90;;;9.50;99.90;;;;;;7367141;19;20864;-62
2023/05/01 00:15:35;;;;;;;9.45;4.57;;;9.50;99.90;;;;;;7366866;19;20462;-62
2023/05/01 00:18:01;;;;;;;8.70;4.57;;;9.40;99.90;;;;;;7369465;19;20043;-62
2023/05/01 00:20:28;;;;;;;9.73;4.63;;;9.40;99.90;;;;;;7367665;19;20410;-62
2023/05/01 00:22:55;;;;;;;7.93;4.18;;;9.30;99.90;;;;;;7371830;19;20025;-62
2023/05/01 00:25:21;;;;;;;8.95;4.20;;;9.30;99.90;;;;;;7367885;19;20030;-62
2023/05/01 00:27:47;;;;;;;7.30;4.47;;;9.30;99.90;;;;;;7376063;19;20499;-62
2023/05/01 00:30:15;;;;;;;7.47;5.20;;;9.20;99.90;;;;;;7380897;19;20018;-62
2023/05/01 00:32:41;;;;;;;8.15;4.47;;;9.20;99.90;;;;;;7378542;19;20037;-62
2023/05/01 00:35:08;;;;;;;7.25;4.35;;;9.10;99.90;;;;;;7380780;19;20025;-61
2023/05/01 00:37:34;;;;;;;9.20;4.18;;;9.10;99.90;;;;;;7376510;19;20053;-62
2023/05/01 00:40:00;;;;;;;7.38;4.53;;;9.10;99.90;;;;;;7380737;19;20019;-61
2023/05/01 00:42:27;;;;;;;10.50;5.25;;;9.10;99.90;;;;;;7381459;19;20545;-61
2023/05/01 00:44:53;;;;;;;9.70;4.47;;;9.00;99.90;;;;;;7374424;19;20082;-61
2023/05/01 00:47:19;;;;;;;6.30;4.75;;;9.00;99.90;;;;;;7379380;19;20014;-62
2023/05/01 00:49:48;;;;;;;7.03;4.53;;;9.00;99.90;;;;;;7379234;19;20541;-62
2023/05/01 00:52:14;;;;;;;9.93;5.18;;;8.90;99.90;;;;;;7380062;19;20015;-62
2023/05/01 00:54:40;;;;;;;7.72;4.72;;;8.90;99.90;;;;;;7378221;19;20019;-62
2023/05/01 00:57:10;;;;;;;8.75;5.45;;;8.80;99.90;;;;;;7377538;19;20023;-61
2023/05/01 00:59:37;;;;;;;9.70;4.80;;;8.80;99.90;;;;;;7377822;19;20023;-61
2023/05/01 01:02:03;;;;;;;8.40;4.50;;;8.70;99.90;;;;;;7373692;19;20776;-62
2023/05/01 01:04:31;;;;;;;9.40;4.50;;;8.70;99.90;;;;;;7372948;19;20025;-61
2023/05/01 01:07:20;;;;;;;8.27;4.70;;;8.60;99.90;;;;;;7371876;19;20616;-61
2023/05/01 01:10:14;;;;;;;8.25;4.75;;;8.60;99.90;;;;;;7369815;19;20025;-61
2023/05/01 01:13:06;;;;;;;6.18;4.50;;;8.60;99.90;;;;;;7369496;19;20021;-62
2023/05/01 01:15:51;;;;;;;7.13;5.10;;;8.60;99.90;;;;;;7372717;19;20023;-61
2023/05/01 01:18:25;;;;;;;9.40;5.45;;;8.50;99.90;;;;;;7371214;19;20018;-62
2023/05/01 01:20:51;;;;;;;9.73;5.03;;;8.50;99.90;;;;;;7370460;19;20018;-61
2023/05/01 01:24:02;;;;;;;8.93;5.28;;;8.40;99.90;;;;;;7372293;19;20018;-61
2023/05/01 01:26:52;;;;;;;8.90;4.40;;;8.40;99.90;;;;;;7371603;19;20796;-61
2023/05/01 01:29:57;;;;;;;10.30;5.03;;;8.30;99.90;;;;;;7372552;19;20025;-62
2023/05/01 01:32:42;;;;;;;7.55;5.40;;;8.10;99.90;;;;;;7377554;19;20033;-62
2023/05/01 01:35:19;;;;;;;8.82;5.43;;;8.10;99.90;;;;;;7377584;19;20018;-61
2023/05/01 01:37:56;;;;;;;7.15;4.88;;;8.00;99.90;;;;;;7370135;19;20053;-61
2023/05/01 01:40:28;;;;;;;10.77;6.40;;;8.00;99.90;;;;;;7377768;19;20026;-62
2023/05/01 01:43:01;;;;;;;7.82;6.25;;;8.00;99.90;;;;;;7375839;19;20527;-61
2023/05/01 01:45:39;;;;;;;8.45;5.80;;;7.90;99.90;;;;;;7379202;19;20042;-61
2023/05/01 01:48:13;;;;;;;7.80;5.90;;;7.90;99.90;;;;;;7371661;19;20022;-61
2023/05/01 01:50:41;;;;;;;10.82;6.78;;;7.90;99.90;;;;;;7375904;19;20019;-62
2023/05/01 01:53:10;;;;;;;13.20;6.75;;;7.90;99.90;;;;;;7374813;19;20019;-61
2023/05/01 01:55:38;;;;;;;10.25;6.85;;;7.90;99.90;;;;;;7374704;19;20827;-62
2023/05/01 01:58:07;;;;;;;8.25;6.43;;;7.90;99.90;;;;;;7376988;19;20039;-62
2023/05/01 02:00:35;;;;;;;11.77;6.70;;;7.90;99.90;;;;;;7378206;19;20521;-61
2023/05/01 02:03:02;;;;;;;11.30;6.80;;;7.90;99.90;;;;;;7376142;19;20025;-62
2023/05/01 02:05:31;;;;;;;14.85;7.45;;;7.80;99.90;;;;;;7374541;19;20487;-62
2023/05/01 02:07:59;;;;;;;10.93;7.13;;;7.80;99.90;;;;;;7374508;19;20553;-61
2023/05/01 02:10:27;;;;;;;9.77;7.20;;;7.80;99.90;;;;;;7374958;19;20029;-61
2023/05/01 02:12:55;;;;;;;10.45;7.20;;;7.80;99.90;;;;;;7375442;19;20026;-61
2023/05/01 02:15:23;;;;;;;9.50;6.97;;;7.70;99.90;;;;;;7379494;19;20617;-61
2023/05/01 02:17:52;;;;;;;8.63;6.95;;;7.80;99.90;;;;;;7376354;19;20014;-61
2023/05/01 02:20:20;;;;;;;10.38;7.00;;;7.80;99.90;;;;;;7375807;19;20493;-61
2023/05/01 02:22:48;;;;;;;10.70;6.65;;;7.70;99.90;;;;;;7374609;19;20481;-62
2023/05/01 02:25:15;;;;;;;10.40;7.10;;;7.70;99.90;;;;;;7376006;19;20050;-62
2023/05/01 02:27:49;;;;;;;11.95;7.07;;;7.70;99.90;;;;;;7374329;19;20018;-62
2023/05/01 02:30:17;;;;;;;10.52;7.25;;;7.60;99.90;;;;;;7371548;19;20022;-61
2023/05/01 02:32:44;;;;;;;11.88;7.20;;;7.60;99.90;;;;;;7374643;19;20018;-61
2023/05/01 02:35:10;;;;;;;10.43;7.10;;;7.60;99.90;;;;;;7375806;19;20027;-61
2023/05/01 02:37:38;;;;;;;12.50;7.20;;;7.50;99.90;;;;;;7375921;19;20014;-62
2023/05/01 02:40:06;;;;;;;13.75;7.68;;;7.50;99.90;;;;;;7370959;19;20034;-62
2023/05/01 02:42:34;;;;;;;12.48;7.15;;;7.50;99.90;;;;;;7370657;19;20018;-61
2023/05/01 02:45:09;;;;;;;11.93;7.65;;;7.50;99.90;;;;;;7373074;19;20488;-61
2023/05/01 02:47:38;;;;;;;10.07;7.10;;;7.50;99.90;;;;;;7375974;19;20026;-62
2023/05/01 02:50:06;;;;;;;13.52;7.53;;;7.40;99.90;;;;;;7369248;19;20019;-61
2023/05/01 02:52:33;;;;;;;11.45;7.63;;;7.40;99.90;;;;;;7372729;19;20041;-61
2023/05/01 02:55:20;;;;;;;11.40;7.40;;;7.40;99.90;;;;;;7371069;19;20026;-61
2023/05/01 02:57:46;;;;;;;10.93;7.63;;;7.40;99.90;;;;;;7366236;19;20019;-61
2023/05/01 03:00:13;;;;;;;13.38;6.60;;;7.40;99.90;;;;;;7370139;19;20094;-61
2023/05/01 03:02:39;;;;;;;9.98;7.05;;;7.40;99.90;;;;;;7370008;19;20010;-62
2023/05/01 03:05:06;;;;;;;11.77;7.95;;;7.30;99.90;;;;;;7367137;19;20159;-62
2023/05/01 03:07:35;;;;;;;11.35;7.60;;;7.40;99.90;;;;;;7367417;19;21159;-61
2023/05/01 03:10:06;;;;;;;11.30;7.88;;;7.40;99.90;;;;;;7369565;19;20058;-62
2023/05/01 03:12:33;;;;;;;10.50;7.60;;;7.30;99.90;;;;;;7373809;19;20022;-61
2023/05/01 03:14:59;;;;;;;11.70;7.30;;;7.30;99.90;;;;;;7369951;19;20022;-62
2023/05/01 03:17:26;;;;;;;16.90;7.30;;;7.20;99.90;;;;;;7369895;19;20780;-61
2023/05/01 03:19:52;;;;;;;10.52;7.60;;;7.20;99.90;;;;;;7367172;19;20102;-61
2023/05/01 03:22:18;;;;;;;14.20;8.27;;;7.20;99.90;;;;;;7372197;19;20018;-61
2023/05/01 03:24:46;;;;;;;10.93;8.40;;;7.20;99.90;;;;;;7372920;19;20085;-62
2023/05/01 03:27:13;;;;;;;8.88;7.63;;;7.10;99.90;;;;;;7374586;19;20272;-61
2023/05/01 03:29:39;;;;;;;10.80;7.78;;;7.10;99.90;;;;;;7371542;19;20511;-61
2023/05/01 03:32:05;;;;;;;9.88;7.43;;;7.10;99.90;;;;;;7374506;19;20018;-62
2023/05/01 03:34:33;;;;;;;13.75;7.72;;;7.10;99.90;;;;;;7373250;19;20070;-62
2023/05/01 03:36:59;;;;;;;15.05;7.88;;;7.10;99.90;;;;;;7371045;19;20669;-62
2023/05/01 03:39:27;;;;;;;12.75;7.88;;;7.10;99.90;;;;;;7374470;19;20018;-62
2023/05/01 03:42:13;;;;;;;12.18;7.70;;;7.10;99.90;;;;;;7370634;19;20584;-62
2023/05/01 03:44:42;;;;;;;11.93;8.20;;;7.00;99.90;;;;;;7374585;19;20890;-62
2023/05/01 03:47:09;;;;;;;13.18;8.10;;;7.00;99.90;;;;;;7371205;19;20486;-62
2023/05/01 03:49:40;;;;;;;11.80;7.85;;;7.00;99.90;;;;;;7372275;19;20026;-62
2023/05/01 03:52:06;;;;;;;10.38;7.57;;;7.00;99.90;;;;;;7372617;19;20018;-62
2023/05/01 03:54:32;;;;;;;10.98;8.10;;;7.10;99.90;;;;;;7374950;19;20033;-62
2023/05/01 03:57:22;;;;;;;10.57;8.13;;;7.00;99.90;;;;;;7373226;19;20894;-62
2023/05/01 03:59:49;;;;;;;11.15;8.20;;;7.00;99.90;;;;;;7371665;19;20831;-62
2023/05/01 04:02:17;;;;;;;11.07;8.13;;;7.00;99.90;;;;;;7368877;19;20042;-62
2023/05/01 04:04:45;;;;;;;11.90;7.97;;;7.00;99.90;;;;;;7369010;19;20499;-62
2023/05/01 04:07:12;;;;;;;11.85;8.98;;;6.90;99.90;;;;;;7368150;19;20111;-62
2023/05/01 04:09:39;;;;;;;10.80;8.45;;;6.90;99.90;;;;;;7368956;19;20018;-62
2023/05/01 04:12:05;;;;;;;13.57;9.30;;;6.90;99.90;;;;;;7364980;19;20859;-62
2023/05/01 04:14:31;;;;;;;14.15;8.98;;;6.90;99.90;;;;;;7369150;19;20078;-62
2023/05/01 04:16:58;;;;;;;11.85;8.85;;;6.90;99.90;;;;;;7368080;19;20010;-62
2023/05/01 04:19:24;;;;;;;14.57;8.73;;;6.90;99.90;;;;;;7367545;19;20014;-62
2023/05/01 04:21:56;;;;;;;12.50;8.83;;;7.00;99.90;;;;;;7361140;19;20034;-62
2023/05/01 04:24:22;;;;;;;10.25;7.80;;;6.90;99.90;;;;;;7365866;19;20035;-63
2023/05/01 04:26:49;;;;;;;12.43;8.85;;;7.00;99.90;;;;;;7366663;19;20023;-63
2023/05/01 04:29:15;;;;;;;12.38;8.68;;;7.00;99.90;;;;;;7365255;19;20022;-62
2023/05/01 04:31:44;;;;;;;11.80;9.00;;;7.00;99.90;;;;;;7365893;19;20082;-63
2023/05/01 04:34:10;;;;;;;11.88;8.35;;;7.00;99.90;;;;;;7367286;19;20019;-62
2023/05/01 04:36:38;;;;;;;14.48;8.85;;;7.10;99.90;;;;;;7369439;19;20021;-62
2023/05/01 04:39:05;;;;;;;13.73;9.00;;;7.10;99.90;;;;;;7367531;19;20119;-62
2023/05/01 04:41:32;;;;;;;14.38;8.85;;;7.20;99.90;;;;;;7363930;19;20029;-62
2023/05/01 04:43:58;;;;;;;16.63;8.55;;;7.20;99.90;;;;;;7367203;19;20022;-62
2023/05/01 04:46:24;;;;;;;13.10;8.65;;;7.20;99.90;;;;;;7367128;19;20030;-62
2023/05/01 04:48:50;;;;;;;13.30;9.50;;;7.30;99.90;;;;;;7363119;19;20065;-63
2023/05/01 04:51:17;;;;;;;11.07;7.80;;;7.30;99.90;;;;;;7366047;19;21774;-62
2023/05/01 04:53:43;;;;;;;10.75;8.63;;;7.30;99.90;;;;;;7367601;19;20074;-61
2023/05/01 04:56:19;;;;;;;15.85;9.23;;;7.40;99.90;;;;;;7366474;19;20029;-61
2023/05/01 04:58:47;;;;;;;10.48;8.38;;;7.40;99.90;;;;;;7370902;19;20022;-61
2023/05/01 05:01:17;;;;;;;14.73;8.70;;;7.50;99.90;;;;;;7366021;19;20014;-61
2023/05/01 05:03:44;;;;;;;11.27;7.85;;;7.50;99.90;;;;;;7366472;19;20022;-61
2023/05/01 05:06:12;;;;;;;13.23;9.60;;;7.60;99.90;;;;;;7366192;19;20612;-61
2023/05/01 05:08:38;;;;;;;12.05;8.63;;;7.60;99.90;;;;;;7366861;19;20861;-62
2023/05/01 05:11:09;;;;;;;12.05;9.00;;;7.60;99.90;;;;;;7364846;19;20022;-61
2023/05/01 05:13:59;;;;;;;13.85;8.25;;;7.70;99.90;;;;;;7374815;19;20272;-61
2023/05/01 05:16:25;;;;;;;11.43;7.63;;;7.80;99.90;;;;;;7374810;19;20581;-62
2023/05/01 05:18:55;;;;;;;12.15;7.88;;;7.90;99.90;;;;;;7374367;19;20479;-61
2023/05/01 05:21:26;;;;;;;10.13;7.32;;;8.20;99.90;;;;;;7376260;19;20011;-61
2023/05/01 05:23:55;;;;;;;14.80;8.73;;;8.30;99.90;;;;;;7379341;19;20014;-62
2023/05/01 05:26:22;;;;;;;12.23;8.07;;;8.40;99.90;;;;;;7381239;19;20022;-62
2023/05/01 05:28:50;;;;;;;13.63;8.13;;;8.60;99.90;;;;;;7379809;19;20026;-62
2023/05/01 05:31:16;;;;;;;12.88;8.30;;;8.70;99.90;;;;;;7379871;19;20022;-62
2023/05/01 05:33:43;;;;;;;13.02;8.60;;;8.70;99.90;;;;;;7381187;19;20034;-62
2023/05/01 05:36:10;;;;;;;13.25;7.78;;;8.70;99.90;;;;;;7376054;19;20013;-61
2023/05/01 05:38:42;;;;;;;12.45;7.50;;;8.80;99.90;;;;;;7374011;19;20051;-61
2023/05/01 05:41:13;;;;;;;11.18;7.10;;;8.90;99.90;;;;;;7372042;19;20022;-61
2023/05/01 05:43:39;;;;;;;14.95;7.38;;;9.00;99.90;;;;;;7376340;19;20023;-61
2023/05/01 05:46:07;;;;;;;10.05;7.60;;;9.10;99.90;;;;;;7374250;19;20014;-61
2023/05/01 05:48:35;;;;;;;15.00;8.35;;;9.20;99.90;;;;;;7372126;19;20461;-61
2023/05/01 05:51:01;;;;;;;11.23;8.13;;;9.30;99.90;;;;;;7373000;19;20014;-61
2023/05/01 05:53:27;;;;;;;12.20;8.00;;;9.60;99.90;;;;;;7372498;19;20018;-60
2023/05/01 05:55:54;;;;;;;10.50;7.25;;;9.80;99.90;;;;;;7371937;19;20022;-61
2023/05/01 05:58:22;;;;;;;13.45;8.35;;;9.90;99.90;;;;;;7375778;19;20011;-61
2023/05/01 06:00:49;;;;;;;12.15;8.20;;;10.00;99.90;;;;;;7372830;19;20018;-61
2023/05/01 06:03:21;;;;;;;11.68;7.45;;;10.10;99.90;;;;;;7374605;19;20103;-62
2023/05/01 06:05:54;;;;;;;11.85;7.22;;;10.10;99.90;;;;;;7372537;19;20046;-61
2023/05/01 06:08:21;;;;;;;11.65;7.43;;;10.10;99.90;;;;;;7370175;19;20728;-60
2023/05/01 06:10:47;;;;;;;13.05;7.20;;;10.20;99.90;;;;;;7371324;19;20027;-61
2023/05/01 06:13:13;;;;;;;11.73;7.38;;;10.10;99.90;;;;;;7377828;19;20121;-62
2023/05/01 06:15:42;;;;;;;15.60;7.63;;;10.20;99.90;;;;;;7378836;19;20094;-62
2023/05/01 06:18:09;;;;;;;11.50;7.05;;;10.20;99.90;;;;;;7376036;19;20015;-60
2023/05/01 06:20:35;;;;;;;12.15;7.38;;;10.40;99.90;;;;;;7371640;19;20053;-61
2023/05/01 06:23:02;;;;;;;9.15;6.55;;;10.60;99.90;;;;;;7369822;19;20019;-62
2023/05/01 06:25:42;;;;;;;9.13;7.13;;;10.80;99.90;;;;;;7377907;19;20026;-62
2023/05/01 06:28:09;;;;;;;11.60;7.32;;;11.10;99.90;;;;;;7373105;19;20015;-62
2023/05/01 06:30:36;;;;;;;10.32;5.65;;;11.30;99.90;;;;;;7377892;19;20358;-62
2023/05/01 06:33:03;;;;;;;10.18;6.78;;;11.50;99.90;;;;;;7375825;19;20018;-62
2023/05/01 06:35:30;;;;;;;10.32;6.47;;;11.80;99.90;;;;;;7376485;19;20663;-63
2023/05/01 06:37:57;;;;;;;9.07;5.97;;;11.90;99.90;;;;;;7378683;19;20018;-63
2023/05/01 06:40:24;;;;;;;13.05;5.72;;;12.20;99.90;;;;;;7378227;19;20106;-62
2023/05/01 06:42:50;;;;;;;8.48;6.03;;;12.30;99.90;;;;;;7375890;19;20022;-63
2023/05/01 06:45:17;;;;;;;13.07;6.55;;;12.40;99.90;;;;;;7377092;19;20015;-62
2023/05/01 06:47:43;;;;;;;9.20;5.32;;;12.60;99.90;;;;;;7376413;19;20605;-61
2023/05/01 06:50:10;;;;;;;8.98;5.43;;;12.70;99.90;;;;;;7371946;19;20121;-61
2023/05/01 06:52:36;;;;;;;9.05;5.88;;;12.60;99.90;;;;;;7373838;19;20046;-63
2023/05/01 06:55:03;;;;;;;11.15;6.00;;;12.90;99.90;;;;;;7371250;19;20086;-61
2023/05/01 06:57:31;;;;;;;8.93;5.30;;;13.10;99.90;;;;;;7374459;19;20025;-62
2023/05/01 06:59:57;;;;;;;8.50;5.32;;;13.20;99.90;;;;;;7374947;19;20077;-62
2023/05/01 07:02:24;;;;;;;9.95;6.38;;;13.30;99.90;;;;;;7374044;19;20033;-62
2023/05/01 07:04:51;;;;;;;10.43;6.47;;;13.30;99.90;;;;;;7373484;19;20027;-62
2023/05/01 07:07:17;;;;;;;9.15;5.80;;;13.30;99.90;;;;;;7371860;19;20086;-61
2023/05/01 07:09:44;;;;;;;9.50;5.75;;;13.30;99.90;;;;;;7374132;19;20026;-61
2023/05/01 07:12:11;;;;;;;10.20;5.82;;;13.30;99.90;;;;;;7373710;19;20049;-60
2023/05/01 07:14:37;;;;;;;9.77;5.97;;;13.40;99.90;;;;;;7369966;19;20018;-61
2023/05/01 07:17:04;;;;;;;7.40;5.13;;;13.50;99.90;;;;;;7372479;19;20497;-61
2023/05/01 07:19:31;;;;;;;9.55;5.95;;;13.60;99.90;;;;;;7374067;19;20019;-60
2023/05/01 07:21:57;;;;;;;11.55;5.82;;;13.60;99.90;;;;;;7368254;19;20057;-61
2023/05/01 07:24:23;;;;;;;9.60;5.40;;;13.60;99.90;;;;;;7372949;19;20529;-62
2023/05/01 07:26:50;;;;;;;11.20;6.00;;;13.70;99.90;;;;;;7371398;19;20474;-61
2023/05/01 07:29:17;;;;;;;11.88;6.32;;;13.60;99.90;;;;;;7371516;19;20030;-60
2023/05/01 07:31:44;;;;;;;13.02;6.22;;;13.60;99.90;;;;;;7370359;19;20714;-61
2023/05/01 07:34:11;;;;;;;10.48;5.80;;;13.60;99.90;;;;;;7374215;19;20014;-61
2023/05/01 07:36:38;;;;;;;10.32;5.50;;;13.70;99.90;;;;;;7377385;19;20073;-61
2023/05/01 07:39:05;;;;;;;9.55;6.28;;;13.70;99.90;;;;;;7371129;19;20029;-61
2023/05/01 07:41:33;;;;;;;10.35;5.20;;;13.70;99.90;;;;;;7368879;19;20022;-61
2023/05/01 07:44:00;;;;;;;10.13;5.95;;;13.80;99.90;;;;;;7370644;19;20010;-61
2023/05/01 07:46:26;;;;;;;9.25;5.75;;;13.80;99.90;;;;;;7370779;19;20039;-61
2023/05/01 07:48:53;;;;;;;10.35;5.57;;;13.90;99.90;;;;;;7370033;19;20018;-61
2023/05/01 07:51:19;;;;;;;9.68;6.28;;;13.80;99.90;;;;;;7370221;19;20022;-61
2023/05/01 07:53:46;;;;;;;10.02;6.07;;;13.90;99.90;;;;;;7369500;19;20022;-61
2023/05/01 07:56:20;;;;;;;9.95;6.20;;;14.00;99.90;;;;;;7364663;19;20026;-62
2023/05/01 07:58:46;;;;;;;11.23;5.95;;;14.00;99.90;;;;;;7368906;19;20022;-61
2023/05/01 08:01:13;;;;;;;9.35;6.18;;;14.10;99.90;;;;;;7370771;19;20355;-61
2023/05/01 08:03:39;;;;;;;10.55;5.65;;;14.20;99.90;;;;;;7371535;19;20592;-61
2023/05/01 08:06:06;;;;;;;8.13;5.82;;;14.40;99.90;;;;;;7372712;19;20015;-61
2023/05/01 08:08:32;;;;;;;8.50;6.20;;;14.30;99.90;;;;;;7367844;19;20022;-62
2023/05/01 08:10:59;;;;;;;11.68;6.32;;;14.40;99.90;;;;;;7370503;19;20094;-61
2023/05/01 08:13:26;;;;;;;10.70;6.10;;;14.60;99.90;;;;;;7371598;19;20074;-62
2023/05/01 08:15:52;;;;;;;9.55;6.00;;;14.90;99.90;;;;;;7375316;19;20148;-62
2023/05/01 08:18:19;;;;;;;13.18;5.95;;;15.20;99.90;;;;;;7371994;19;20663;-60
2023/05/01 08:20:49;;;;;;;11.13;6.07;;;15.40;99.90;;;;;;7372740;19;20076;-63
2023/05/01 08:23:16;;;;;;;11.10;5.70;;;15.60;99.90;;;;;;7369899;19;20051;-61
2023/05/01 08:25:45;;;;;;;10.45;6.35;;;15.80;99.90;;;;;;7368245;19;20015;-60
2023/05/01 08:28:19;;;;;;;10.77;6.10;;;16.00;99.90;;;;;;7369397;19;20029;-62
2023/05/01 08:30:45;;;;;;;11.02;5.57;;;16.60;99.60;;;;;;7369073;19;20037;-62
2023/05/01 08:33:19;;;;;;;9.02;6.05;;;17.00;97.00;;;;;;7368372;19;20403;-62
2023/05/01 08:35:45;;;;;;;9.60;5.82;;;17.60;96.80;;;;;;7369493;19;20062;-62
2023/05/01 08:38:12;;;;;;;8.70;4.93;;;17.90;88.60;;;;;;7368091;19;20396;-62
2023/05/01 08:40:49;;;;;;;12.20;5.82;;;17.90;68.90;;;;;;7369114;19;20015;-62
2023/05/01 08:43:16;;;;;;;8.43;4.78;;;17.80;66.90;;;;;;7369492;19;21601;-62
2023/05/01 08:45:45;;;;;;;8.20;4.43;;;17.70;68.20;;;;;;7366225;19;20082;-63
2023/05/01 08:48:19;;;;;;;9.13;4.40;;;17.90;66.30;;;;;;7378091;19;20018;-62
2023/05/01 08:50:49;;;;;;;9.70;4.80;;;17.80;63.20;;;;;;7383136;19;20026;-62
2023/05/01 08:53:17;;;;;;;10.48;4.80;;;17.90;61.70;;;;;;7379845;19;20018;-63
2023/05/01 08:55:47;;;;;;;9.50;4.70;;;18.10;63.00;;;;;;7379004;19;20104;-63
2023/05/01 08:58:16;;;;;;;7.13;4.80;;;18.20;63.40;;;;;;7381423;19;20611;-63
2023/05/01 09:00:45;;;;;;;7.75;4.38;;;18.40;63.20;;;;;;7379232;19;20011;-63
2023/05/01 09:03:13;;;;;;;8.07;5.10;;;18.70;62.10;;;;;;7376100;19;20371;-63
2023/05/01 09:05:39;;;;;;;7.80;4.88;;;19.00;61.30;;;;;;7378240;19;20022;-63
2023/05/01 09:08:06;;;;;;;8.27;5.47;;;19.30;59.80;;;;;;7370185;19;20246;-63
2023/05/01 09:10:33;;;;;;;8.18;4.93;;;19.40;59.60;;;;;;7379059;19;20022;-63
2023/05/01 09:13:05;;;;;;;7.40;4.57;;;19.40;59.90;;;;;;7378464;19;20033;-63
2023/05/01 09:15:32;;;;;;;6.28;4.90;;;19.60;59.00;;;;;;7378817;19;20030;-62
2023/05/01 09:18:00;;;;;;;7.85;4.75;;;20.10;58.00;;;;;;7375196;19;20026;-63
2023/05/01 09:20:27;;;;;;;8.25;4.82;;;19.90;57.60;;;;;;7379496;19;20014;-63
2023/05/01 09:22:58;;;;;;;8.98;4.97;;;19.80;57.50;;;;;;7374389;19;20029;-61
2023/05/01 09:25:25;;;;;;;7.67;5.17;;;19.80;57.40;;;;;;7375632;19;20573;-62
2023/05/01 09:27:51;;;;;;;10.75;4.88;;;20.10;57.00;;;;;;7371977;19;20024;-63
2023/05/01 09:30:32;;;;;;;8.60;4.57;;;20.40;57.50;;;;;;7376152;19;20023;-62
2023/05/01 09:33:10;;;;;;;8.93;4.40;;;20.50;55.60;;;;;;7375855;19;20027;-62
2023/05/01 09:35:53;;;;;;;9.60;4.90;;;20.90;55.60;;;;;;7376576;19;20022;-62
2023/05/01 09:38:25;;;;;;;10.00;5.22;;;21.30;52.80;;;;;;7374975;19;20757;-62
2023/05/01 09:41:02;;;;;;;7.43;4.63;;;21.50;53.10;;;;;;7374741;19;20498;-63
2023/05/01 09:43:30;;;;;;;9.18;4.55;;;21.40;51.30;;;;;;7375861;19;20034;-62
2023/05/01 09:46:10;;;;;;;9.38;5.43;;;21.90;51.80;;;;;;7372049;19;20018;-63
2023/05/01 09:48:37;;;;;;;8.20;5.55;;;22.20;52.00;;;;;;7373416;19;20038;-62
2023/05/01 09:51:27;;;;;;;8.93;4.47;;;22.60;52.20;;;;;;7375284;19;20231;-62
2023/05/01 09:53:56;;;;;;;11.30;3.88;;;22.90;48.60;;;;;;7370774;19;20131;-62
2023/05/01 09:56:24;;;;;;;7.20;3.80;;;22.70;47.40;;;;;;7374365;19;20022;-63
2023/05/01 09:58:52;;;;;;;8.60;4.10;;;22.60;48.90;;;;;;7368646;19;21331;-63
2023/05/01 10:01:39;;;;;;;11.05;5.15;;;23.00;48.80;;;;;;7373157;19;20074;-63
2023/05/01 10:04:06;;;;;;;6.38;3.75;;;23.30;48.10;;;;;;7372403;19;20029;-63
2023/05/01 10:06:32;;;;;;;6.32;3.70;;;22.90;48.10;;;;;;7375649;19;20478;-63
2023/05/01 10:08:59;;;;;;;6.28;3.85;;;22.80;48.20;;;;;;7367696;19;20014;-63
2023/05/01 10:11:25;;;;;;;7.30;3.28;;;22.70;47.80;;;;;;7370596;19;20022;-62
2023/05/01 10:14:08;;;;;;;9.80;3.45;;;22.80;47.40;;;;;;7373041;19;20014;-62
2023/05/01 10:16:37;;;;;;;5.05;3.30;;;23.00;46.90;;;;;;7373486;19;20018;-63
2023/05/01 10:19:04;;;;;;;7.28;2.85;;;23.20;47.50;;;;;;7370348;19;20746;-63
2023/05/01 10:21:32;;;;;;;6.60;2.55;;;23.40;46.60;;;;;;7371612;19;21069;-62
2023/05/01 10:24:04;;;;;;;4.20;2.58;;;23.20;45.90;;;;;;7373605;19;20471;-63
2023/05/01 10:26:33;;;;;;;8.88;4.28;;;22.90;46.30;;;;;;7372738;19;20664;-63
2023/05/01 10:29:00;;;;;;;5.72;2.40;;;23.20;46.80;;;;;;7371555;19;20118;-63
2023/05/01 10:31:28;;;;;;;6.45;2.50;;;23.40;46.80;;;;;;7372250;19;20031;-63
2023/05/01 10:33:55;;;;;;;7.57;2.53;;;23.40;45.50;;;;;;7370808;19;20807;-63
2023/05/01 10:36:36;;;;;;;4.88;3.00;;;23.90;45.80;;;;;;7374876;19;20031;-63
2023/05/01 10:39:03;;;;;;;9.35;6.07;;;24.10;45.50;;;;;;7371245;19;20400;-63
2023/05/01 10:41:57;;;;;;;5.18;2.72;;;24.40;46.20;;;;;;7373415;19;20785;-63
2023/05/01 10:44:25;;;;;;;6.53;3.22;;;24.50;44.30;;;;;;7372595;19;20026;-63
2023/05/01 10:46:53;;;;;;;6.93;2.70;;;24.20;45.00;;;;;;7374558;19;20014;-62
2023/05/01 10:49:20;;;;;;;7.63;4.82;;;24.00;45.40;;;;;;7370817;19;20612;-61
2023/05/01 10:52:03;;;;;;;6.38;2.60;;;24.70;45.40;;;;;;7372970;19;20022;-62
2023/05/01 10:54:32;;;;;;;3.90;1.75;;;24.80;44.00;;;;;;7374042;19;20027;-62
2023/05/01 10:57:00;;;;;;;4.22;1.90;;;25.00;44.80;;;;;;7374391;19;20018;-63
2023/05/01 10:59:47;;;;;;;4.70;1.63;;;25.20;44.00;;;;;;7374290;19;20030;-63
2023/05/01 11:02:24;;;;;;;5.25;2.00;;;25.60;43.40;;;;;;7372655;19;20033;-63
2023/05/01 11:04:52;;;;;;;5.13;2.17;;;25.00;41.80;;;;;;7372521;19;20058;-64
2023/05/01 11:07:20;;;;;;;3.65;1.80;;;24.80;42.80;;;;;;7373089;19;20026;-63
2023/05/01 11:09:56;;;;;;;4.18;2.00;;;24.00;43.60;;;;;;7372350;19;20585;-63
2023/05/01 11:12:47;;;;;;;3.88;1.80;;;24.10;44.40;;;;;;7368472;19;20022;-61
2023/05/01 11:15:31;;;;;;;6.80;2.20;;;23.30;45.20;;;;;;7370254;19;20031;-61
2023/05/01 11:17:59;;;;;;;4.93;2.72;;;23.90;45.30;;;;;;7371485;19;20097;-62
2023/05/01 11:20:25;;;;;;;4.75;1.75;;;24.00;45.50;;;;;;7369853;19;20044;-60
2023/05/01 11:22:54;;;;;;;4.15;1.75;;;24.60;44.70;;;;;;7367073;19;20370;-61
2023/05/01 11:25:31;;;;;;;7.38;5.35;;;24.50;43.20;;;;;;7368198;19;20026;-62
2023/05/01 11:28:00;;;;;;;5.80;3.65;;;25.30;44.70;;;;;;7368267;19;20018;-63
2023/05/01 11:30:39;;;;;;;6.45;2.95;;;25.80;43.80;;;;;;7373156;19;20019;-63
2023/05/01 11:33:07;;;;;;;3.83;1.45;;;25.90;42.30;;;;;;7368442;19;20053;-62
2023/05/01 11:35:33;;;;;;;4.80;2.92;;;25.70;41.90;;;;;;7369266;19;20026;-63
2023/05/01 11:37:59;;;;;;;4.47;1.58;;;26.00;42.30;;;;;;7371988;19;20359;-62
2023/05/01 11:40:31;;;;;;;3.22;1.00;;;25.80;41.40;;;;;;7375301;19;20064;-61
2023/05/01 11:43:01;;;;;;;2.85;1.70;;;25.30;40.80;;;;;;7371261;19;20535;-62
2023/05/01 11:45:29;;;;;;;7.57;1.73;;;25.10;42.50;;;;;;7370342;19;20093;-62
2023/05/01 11:48:01;;;;;;;3.70;1.87;;;25.80;42.20;;;;;;7372631;19;20554;-62
2023/05/01 11:50:36;;;;;;;3.63;2.05;;;26.00;42.80;;;;;;7374732;19;20358;-62
2023/05/01 11:53:17;;;;;;;3.15;1.63;;;26.10;40.80;;;;;;7374082;19;20015;-61
2023/05/01 11:55:44;;;;;;;6.13;1.95;;;26.10;41.90;;;;;;7372629;19;20026;-63
2023/05/01 11:58:11;;;;;;;4.43;2.17;;;25.70;42.10;;;;;;7369755;19;20026;-62
2023/05/01 12:00:40;;;;;;;5.35;1.77;;;26.10;42.80;;;;;;7370967;19;20081;-63
2023/05/01 12:03:09;;;;;;;3.75;1.60;;;26.00;41.70;;;;;;7373030;19;20392;-62
2023/05/01 12:05:38;;;;;;;4.97;1.55;;;25.70;41.20;;;;;;7372851;19;20015;-62
2023/05/01 12:08:18;;;;;;;5.97;1.52;;;26.20;42.00;;;;;;7368569;19;20813;-62
2023/05/01 12:10:56;;;;;;;2.40;1.17;;;24.70;41.90;;;;;;7372870;19;20357;-61
2023/05/01 12:13:24;;;;;;;3.22;1.40;;;24.70;42.80;;;;;;7373788;19;20014;-61
2023/05/01 12:15:52;;;;;;;3.10;1.23;;;24.70;42.80;;;;;;7370343;19;20025;-61
2023/05/01 12:18:23;;;;;;;2.85;0.90;;;23.80;42.90;;;;;;7368054;19;20024;-62
2023/05/01 12:20:53;;;;;;;4.03;2.10;;;24.10;42.90;;;;;;7372077;19;20941;-61
2023/05/01 12:23:30;;;;;;;7.03;3.03;;;24.20;42.60;;;;;;7373181;19;20637;-61
2023/05/01 12:25:57;;;;;;;4.40;1.20;;;24.10;42.50;;;;;;7367135;19;20082;-61
2023/05/01 12:28:26;;;;;;;4.90;1.35;;;24.40;43.10;;;;;;7369415;19;20019;-61
2023/05/01 12:31:01;;;;;;;4.25;2.05;;;24.60;42.50;;;;;;7372814;19;20749;-62
2023/05/01 12:33:30;;;;;;;4.38;1.30;;;25.00;42.30;;;;;;7372060;19;20019;-62
2023/05/01 12:36:10;;;;;;;3.20;1.40;;;24.80;41.80;;;;;;7369061;19;20026;-62
2023/05/01 12:38:36;;;;;;;4.57;1.10;;;24.40;41.40;;;;;;7370836;19;20043;-61
2023/05/01 12:41:05;;;;;;;5.88;3.03;;;24.20;41.80;;;;;;7373816;19;20010;-61
2023/05/01 12:43:33;;;;;;;8.25;5.30;;;23.90;42.00;;;;;;7368032;19;20029;-61
2023/05/01 12:46:14;;;;;;;2.13;0.95;;;24.80;42.50;;;;;;7366663;19;20010;-61
2023/05/01 12:48:41;;;;;;;2.47;1.00;;;25.30;42.40;;;;;;7371287;19;20049;-61
2023/05/01 12:51:07;;;;;;;4.97;1.48;;;25.10;41.60;;;;;;7372135;19;20488;-61
2023/05/01 12:53:42;;;;;;;6.05;3.28;;;24.50;42.30;;;;;;7367846;19;20022;-61
2023/05/01 12:56:23;;;;;;;7.50;5.53;;;25.00;42.60;;;;;;7363142;19;20437;-61
2023/05/01 12:58:50;;;;;;;3.63;1.38;;;25.30;41.70;;;;;;7369414;19;20022;-62
2023/05/01 13:01:25;;;;;;;6.13;3.30;;;25.70;40.30;;;;;;7365877;19;20022;-62